Time;durP1;ratioP1;P1;durP2;ratioP2;P2;SDS_P1;SDS_P2;PMS_P1;PMS_P2;Temp;Humidity;BMP_temperature;BMP_pressure;BME280_temperature;BME280_humidity;BME280_pressure;Samples;Min_cycle;Max_cycle;Signal;HPM_P1;HPM_P2
2022/10/07 00:00:23;;;;;;;0.00;0.00;;;;;;;12.26;100.00;99832.50;4993371;28;21034;-63
2022/10/07 00:02:50;;;;;;;0.00;0.00;;;;;;;12.27;100.00;99830.75;4992848;28;20709;-63
2022/10/07 00:05:17;;;;;;;0.00;0.00;;;;;;;12.27;100.00;99831.56;4991771;28;20301;-64
2022/10/07 00:07:45;;;;;;;0.00;0.00;;;;;;;12.29;100.00;99826.19;4997518;28;20237;-63
2022/10/07 00:10:11;;;;;;;0.00;0.00;;;;;;;12.31;100.00;99827.72;4991526;28;20229;-63
2022/10/07 00:12:38;;;;;;;0.00;0.00;;;;;;;12.31;100.00;99827.72;4995990;28;20734;-63
2022/10/07 00:15:07;;;;;;;0.00;0.00;;;;;;;12.33;100.00;99823.19;4996018;28;20224;-63
2022/10/07 00:17:33;;;;;;;0.00;0.00;;;;;;;12.32;100.00;99823.31;4993600;28;20243;-63
2022/10/07 00:20:00;;;;;;;0.00;0.00;;;;;;;12.33;100.00;99830.22;4996020;28;20233;-64
2022/10/07 00:22:26;;;;;;;0.00;0.00;;;;;;;12.30;100.00;99818.19;4990960;28;20252;-64
2022/10/07 00:24:54;;;;;;;0.00;0.00;;;;;;;12.28;100.00;99827.16;4993404;28;20233;-63
2022/10/07 00:27:21;;;;;;;0.00;0.00;;;;;;;12.24;100.00;99826.59;4992111;28;20229;-63
2022/10/07 00:29:48;;;;;;;0.00;0.00;;;;;;;12.22;100.00;99818.88;4977160;28;20319;-63
2022/10/07 00:32:16;;;;;;;0.00;0.00;;;;;;;12.21;100.00;99827.69;4970811;28;20229;-63
2022/10/07 00:34:43;;;;;;;0.00;0.00;;;;;;;12.15;100.00;99822.97;4975741;28;20602;-63
2022/10/07 00:37:13;;;;;;;0.00;0.00;;;;;;;12.11;100.00;99816.34;4988150;28;20322;-63
2022/10/07 00:39:39;;;;;;;0.00;0.00;;;;;;;12.12;100.00;99814.56;4995678;28;20284;-63
2022/10/07 00:42:12;;;;;;;0.00;0.00;;;;;;;12.09;100.00;99810.41;4992400;28;20236;-63
2022/10/07 00:44:42;;;;;;;0.00;0.00;;;;;;;12.08;100.00;99807.00;4974947;28;20241;-63
2022/10/07 00:47:14;;;;;;;0.00;0.00;;;;;;;12.05;100.00;99793.31;4989529;28;20605;-63
2022/10/07 00:49:46;;;;;;;0.00;0.00;;;;;;;12.05;100.00;99794.16;4975442;28;20252;-62
2022/10/07 00:52:15;;;;;;;0.00;0.00;;;;;;;12.05;100.00;99791.53;4971799;28;20224;-62
2022/10/07 00:54:43;;;;;;;0.00;0.00;;;;;;;12.08;100.00;99786.06;4994319;28;20315;-62
2022/10/07 00:57:11;;;;;;;0.00;0.00;;;;;;;12.07;100.00;99786.16;4973820;28;20372;-62
2022/10/07 00:59:39;;;;;;;0.00;0.00;;;;;;;12.04;100.00;99781.19;4977225;28;20224;-62
2022/10/07 01:02:06;;;;;;;0.00;0.00;;;;;;;12.10;100.00;99772.81;4977730;28;20247;-62
2022/10/07 01:04:34;;;;;;;0.00;0.00;;;;;;;12.04;100.00;99774.19;4973358;28;20225;-63
2022/10/07 01:07:00;;;;;;;0.00;0.00;;;;;;;12.05;100.00;99765.38;4976175;28;20236;-63
2022/10/07 01:09:27;;;;;;;0.00;0.00;;;;;;;12.05;100.00;99761.91;4974329;28;20237;-62
2022/10/07 01:11:59;;;;;;;0.00;0.00;;;;;;;12.06;100.00;99758.34;4973735;28;20252;-62
2022/10/07 01:14:44;;;;;;;0.00;0.00;;;;;;;12.06;100.00;99755.72;4980826;28;20228;-63
2022/10/07 01:17:21;;;;;;;0.00;0.00;;;;;;;12.05;100.00;99757.53;4990943;28;20315;-63
2022/10/07 01:20:22;;;;;;;0.00;0.00;;;;;;;12.06;100.00;99743.47;4977280;28;20236;-63
2022/10/07 01:23:01;;;;;;;0.00;0.00;;;;;;;12.08;100.00;99738.09;4971426;28;20735;-63
2022/10/07 01:25:41;;;;;;;0.00;0.00;;;;;;;12.11;100.00;99737.84;4990999;28;20621;-63
2022/10/07 01:28:13;;;;;;;0.00;0.00;;;;;;;12.14;100.00;99740.19;4967505;28;20689;-63
2022/10/07 01:30:47;;;;;;;0.00;0.00;;;;;;;12.18;100.00;99731.09;4987843;28;20228;-63
2022/10/07 01:33:17;;;;;;;0.00;0.00;;;;;;;12.19;100.00;99732.75;4979235;28;20708;-63
2022/10/07 01:35:47;;;;;;;0.00;0.00;;;;;;;12.23;100.00;99725.44;4986984;28;20244;-63
2022/10/07 01:38:17;;;;;;;0.00;0.00;;;;;;;12.25;100.00;99721.75;4990717;28;20241;-63
2022/10/07 01:40:48;;;;;;;0.00;0.00;;;;;;;12.25;100.00;99716.53;4977451;28;20314;-63
2022/10/07 01:43:20;;;;;;;0.00;0.00;;;;;;;12.25;100.00;99705.19;4973626;28;20239;-63
2022/10/07 01:45:47;;;;;;;0.00;0.00;;;;;;;12.25;100.00;99700.81;4970532;28;20640;-63
2022/10/07 01:48:14;;;;;;;0.00;0.00;;;;;;;12.28;100.00;99701.50;4975142;28;20317;-63
2022/10/07 01:50:41;;;;;;;0.00;0.00;;;;;;;12.28;100.00;99699.69;4977748;28;20248;-63
2022/10/07 01:53:25;;;;;;;0.00;0.00;;;;;;;12.26;100.00;99693.78;4972889;28;20275;-63
2022/10/07 01:56:06;;;;;;;0.00;0.00;;;;;;;12.23;100.00;99699.28;4981436;28;20921;-63
2022/10/07 01:58:47;;;;;;;0.00;0.00;;;;;;;12.24;100.00;99691.31;4982167;28;20231;-63
2022/10/07 02:01:19;;;;;;;0.00;0.00;;;;;;;12.24;100.00;99699.16;4996796;28;20295;-63
2022/10/07 02:04:08;;;;;;;0.00;0.00;;;;;;;12.27;100.00;99703.28;4980147;28;20313;-63
2022/10/07 02:06:43;;;;;;;0.00;0.00;;;;;;;12.26;100.00;99696.38;4986159;28;20233;-63
2022/10/07 02:09:22;;;;;;;0.00;0.00;;;;;;;12.22;100.00;99689.75;4972374;28;20240;-63
2022/10/07 02:12:04;;;;;;;0.00;0.00;;;;;;;12.21;100.00;99691.56;4981816;28;20247;-63
2022/10/07 02:14:40;;;;;;;0.00;0.00;;;;;;;12.19;100.00;99688.25;4986270;28;20920;-63
2022/10/07 02:17:13;;;;;;;0.00;0.00;;;;;;;12.16;100.00;99692.97;4996143;28;20250;-63
2022/10/07 02:19:46;;;;;;;0.00;0.00;;;;;;;12.14;100.00;99687.03;4984049;28;20558;-63
2022/10/07 02:22:15;;;;;;;0.00;0.00;;;;;;;12.09;100.00;99688.25;4995716;28;20918;-63
2022/10/07 02:24:44;;;;;;;0.00;0.00;;;;;;;12.03;100.00;99693.19;4974953;28;20366;-63
2022/10/07 02:27:13;;;;;;;0.00;0.00;;;;;;;11.99;100.00;99687.38;4978897;28;20231;-63
2022/10/07 02:29:46;;;;;;;0.00;0.00;;;;;;;11.94;100.00;99679.91;4980910;28;20324;-63
2022/10/07 02:32:18;;;;;;;0.00;0.00;;;;;;;11.90;100.00;99681.13;4976877;28;20241;-63
2022/10/07 02:34:48;;;;;;;0.00;0.00;;;;;;;11.88;100.00;99675.22;4996100;28;20328;-63
2022/10/07 02:37:19;;;;;;;0.00;0.00;;;;;;;11.87;100.00;99673.56;4977190;28;20320;-63
2022/10/07 02:39:47;;;;;;;0.00;0.00;;;;;;;11.83;100.00;99666.94;4981100;28;20235;-63
2022/10/07 02:42:23;;;;;;;0.00;0.00;;;;;;;11.77;100.00;99675.31;4993058;28;20236;-63
2022/10/07 02:44:55;;;;;;;0.00;0.00;;;;;;;11.75;100.00;99665.00;4980173;28;20278;-63
2022/10/07 02:47:27;;;;;;;0.00;0.00;;;;;;;11.75;100.00;99662.38;4975488;28;20271;-63
2022/10/07 02:49:59;;;;;;;0.00;0.00;;;;;;;11.73;100.00;99671.28;5000928;28;20228;-63
2022/10/07 02:52:30;;;;;;;0.00;0.00;;;;;;;11.72;100.00;99664.41;4973808;28;20261;-63
2022/10/07 02:55:06;;;;;;;0.00;0.00;;;;;;;11.72;100.00;99664.41;4993146;28;20241;-63
2022/10/07 02:57:38;;;;;;;0.00;0.00;;;;;;;11.69;100.00;99668.13;4981697;28;20224;-63
2022/10/07 03:03:04;;;;;;;0.00;0.00;;;;;;;11.66;100.00;99668.41;4960405;23;20238;-58
2022/10/07 03:05:41;;;;;;;0.00;0.00;;;;;;;11.69;100.00;99662.06;4981693;28;20669;-57
2022/10/07 03:08:09;;;;;;;0.00;0.00;;;;;;;11.69;100.00;99655.06;4976284;28;20235;-56
2022/10/07 03:10:37;;;;;;;0.00;0.00;;;;;;;11.66;100.00;99650.09;4979213;28;20239;-59
2022/10/07 03:13:06;;;;;;;0.00;0.00;;;;;;;11.64;100.00;99644.16;4978988;28;20350;-59
2022/10/07 03:15:37;;;;;;;0.00;0.00;;;;;;;11.66;100.00;99648.28;4985068;28;20318;-58
2022/10/07 03:18:06;;;;;;;0.00;0.00;;;;;;;11.66;100.00;99637.00;4982207;28;20235;-58
2022/10/07 03:20:33;;;;;;;0.00;0.00;;;;;;;11.65;100.00;99637.97;4979290;28;20376;-58
2022/10/07 03:23:00;;;;;;;0.00;0.00;;;;;;;11.68;100.00;99648.16;4998341;28;20614;-57
2022/10/07 03:25:27;;;;;;;0.00;0.00;;;;;;;11.70;100.00;99648.03;4976254;28;20240;-57
2022/10/07 03:27:55;;;;;;;0.00;0.00;;;;;;;11.72;100.00;99636.47;4975082;28;20235;-57
2022/10/07 03:30:22;;;;;;;0.00;0.00;;;;;;;11.73;100.00;99638.13;4979069;28;20245;-57
2022/10/07 03:32:50;;;;;;;0.00;0.00;;;;;;;11.73;100.00;99634.69;4981578;28;20240;-57
2022/10/07 03:35:18;;;;;;;0.00;0.00;;;;;;;11.68;100.00;99637.72;4977487;28;20331;-57
2022/10/07 03:37:45;;;;;;;0.00;0.00;;;;;;;11.65;100.00;99619.66;4977490;28;20701;-58
2022/10/07 03:40:12;;;;;;;0.00;0.00;;;;;;;11.65;100.00;99628.34;4975572;28;20232;-58
2022/10/07 03:42:39;;;;;;;0.00;0.00;;;;;;;11.72;100.00;99618.19;4978694;28;20651;-58
2022/10/07 03:45:06;;;;;;;0.00;0.00;;;;;;;11.67;100.00;99626.41;4982162;28;20224;-58
2022/10/07 03:47:33;;;;;;;0.00;0.00;;;;;;;11.69;100.00;99628.06;4995014;28;20243;-58
2022/10/07 03:49:59;;;;;;;0.00;0.00;;;;;;;11.65;100.00;99623.13;4978628;28;20705;-58
2022/10/07 03:52:27;;;;;;;0.00;0.00;;;;;;;11.67;100.00;99620.38;4994198;28;20248;-57
2022/10/07 03:54:55;;;;;;;0.00;0.00;;;;;;;11.72;100.00;99631.25;4980803;28;20242;-58
2022/10/07 04:00:07;;;;;;;0.00;0.00;;;;;;;11.76;100.00;99622.19;4983629;28;20228;-58
2022/10/07 04:02:49;;;;;;;0.00;0.00;;;;;;;11.71;100.00;99626.13;4993142;28;20236;-59
2022/10/07 04:05:19;;;;;;;0.00;0.00;;;;;;;11.72;100.00;99630.41;4980488;28;20760;-56
2022/10/07 04:07:48;;;;;;;0.00;0.00;;;;;;;11.71;100.00;99619.13;4985033;28;20227;-57
2022/10/07 04:10:18;;;;;;;0.00;0.00;;;;;;;11.66;100.00;99616.91;4975336;28;20232;-57
2022/10/07 04:12:46;;;;;;;0.00;0.00;;;;;;;11.64;100.00;99621.47;4982492;28;20780;-57
2022/10/07 04:15:13;;;;;;;0.00;0.00;;;;;;;11.65;100.00;99622.28;4976243;28;20588;-58
2022/10/07 04:17:43;;;;;;;0.00;0.00;;;;;;;11.72;100.00;99622.56;4976924;28;20892;-58
2022/10/07 04:20:15;;;;;;;0.00;0.00;;;;;;;11.71;100.00;99623.53;4975174;28;20239;-58
2022/10/07 04:22:42;;;;;;;0.00;0.00;;;;;;;11.71;100.00;99621.75;4977696;28;20306;-58
2022/10/07 04:27:58;;;;;;;0.00;0.00;;;;;;;11.71;100.00;99611.28;4985660;28;20232;-59
2022/10/07 04:30:33;;;;;;;0.00;0.00;;;;;;;11.69;100.00;99609.75;4981697;28;20724;-57
2022/10/07 04:33:01;;;;;;;0.00;0.00;;;;;;;11.66;100.00;99603.00;4976926;28;20246;-58
2022/10/07 04:35:28;;;;;;;0.00;0.00;;;;;;;11.70;100.00;99608.78;4974917;28;20235;-57
2022/10/07 04:37:57;;;;;;;0.00;0.00;;;;;;;11.72;100.00;99606.88;4977048;28;20572;-58
2022/10/07 04:40:27;;;;;;;0.00;0.00;;;;;;;11.72;100.00;99605.09;4974127;28;20702;-57
2022/10/07 04:45:54;;;;;;;0.00;0.00;;;;;;;11.65;100.00;99596.97;4962312;28;20348;-56
2022/10/07 04:48:23;;;;;;;0.00;0.00;;;;;;;11.62;100.00;99594.63;4974473;28;20231;-57
2022/10/07 04:50:51;;;;;;;0.00;0.00;;;;;;;11.61;100.00;99595.59;4977441;28;20303;-57
2022/10/07 04:53:20;;;;;;;0.00;0.00;;;;;;;11.61;100.00;99592.97;4971893;28;20224;-57
2022/10/07 04:55:51;;;;;;;0.00;0.00;;;;;;;11.59;100.00;99594.88;4977354;28;20278;-57
2022/10/07 04:58:20;;;;;;;0.00;0.00;;;;;;;11.58;100.00;99590.63;4985791;28;20232;-54
2022/10/07 05:00:49;;;;;;;0.00;0.00;;;;;;;11.58;100.00;99593.22;4978072;28;20712;-57
2022/10/07 05:03:18;;;;;;;0.00;0.00;;;;;;;11.58;100.00;99593.22;4973809;28;20276;-58
2022/10/07 05:05:49;;;;;;;0.00;0.00;;;;;;;11.54;100.00;99597.06;4975188;28;20371;-57
2022/10/07 05:08:18;;;;;;;0.00;0.00;;;;;;;11.54;100.00;99598.84;4976846;28;20247;-57
2022/10/07 05:10:46;;;;;;;0.00;0.00;;;;;;;11.54;100.00;99597.06;4979271;28;20660;-57
2022/10/07 05:13:16;;;;;;;0.00;0.00;;;;;;;11.52;100.00;99594.56;4974336;28;20223;-57
2022/10/07 05:15:49;;;;;;;0.00;0.00;;;;;;;11.52;100.00;99596.38;4992664;28;20248;-57
2022/10/07 05:18:18;;;;;;;0.00;0.00;;;;;;;11.50;100.00;99593.88;4975315;28;20217;-57
2022/10/07 05:20:46;;;;;;;0.00;0.00;;;;;;;11.52;100.00;99584.13;4976281;28;20241;-57
2022/10/07 05:23:14;;;;;;;0.00;0.00;;;;;;;11.54;100.00;99586.63;4975036;28;20241;-58
2022/10/07 05:25:42;;;;;;;0.00;0.00;;;;;;;11.59;100.00;99586.19;4982407;28;20224;-58
2022/10/07 05:28:10;;;;;;;0.00;0.00;;;;;;;11.63;100.00;99583.19;4972258;28;20226;-58
2022/10/07 05:30:40;;;;;;;0.00;0.00;;;;;;;11.65;100.00;99577.81;4983228;28;20244;-58
2022/10/07 05:33:08;;;;;;;0.00;0.00;;;;;;;11.66;100.00;99580.28;4974937;28;20227;-58
2022/10/07 05:35:36;;;;;;;0.00;0.00;;;;;;;11.69;100.00;99583.59;4983434;28;20702;-57
2022/10/07 05:38:03;;;;;;;0.00;0.00;;;;;;;11.69;100.00;99584.44;5004238;28;20767;-59
2022/10/07 05:40:30;;;;;;;0.00;0.00;;;;;;;11.70;100.00;99587.88;4981351;28;20251;-58
2022/10/07 05:42:56;;;;;;;0.00;0.00;;;;;;;11.70;100.00;99582.63;4982422;28;20235;-58
2022/10/07 05:45:24;;;;;;;0.00;0.00;;;;;;;11.71;100.00;99581.69;4980202;28;20239;-56
2022/10/07 05:47:52;;;;;;;0.00;0.00;;;;;;;11.74;100.00;99581.41;4984903;28;20248;-57
2022/10/07 05:50:19;;;;;;;0.00;0.00;;;;;;;11.75;100.00;99580.44;4984786;28;20297;-56
2022/10/07 05:52:45;;;;;;;0.00;0.00;;;;;;;11.74;100.00;99573.56;4986893;28;20232;-58
2022/10/07 05:55:15;;;;;;;0.00;0.00;;;;;;;11.78;100.00;99574.94;4979618;28;20245;-58
2022/10/07 05:57:42;;;;;;;0.00;0.00;;;;;;;11.84;100.00;99576.22;4984016;28;20853;-57
2022/10/07 06:00:09;;;;;;;0.00;0.00;;;;;;;11.86;100.00;99577.72;4998399;28;20231;-57
2022/10/07 06:02:46;;;;;;;0.00;0.00;;;;;;;11.92;100.00;99578.97;4981566;28;20235;-58
2022/10/07 06:05:14;;;;;;;0.00;0.00;;;;;;;11.95;100.00;99579.53;4976725;28;20316;-58
2022/10/07 06:07:41;;;;;;;0.00;0.00;;;;;;;12.04;100.00;99582.31;4981674;28;20238;-59
2022/10/07 06:13:08;;;;;;;0.00;0.00;;;;;;;12.14;100.00;99572.69;4989278;28;20236;-57
2022/10/07 06:15:37;;;;;;;0.00;0.00;;;;;;;12.22;100.00;99566.75;4980577;28;20259;-57
2022/10/07 06:18:05;;;;;;;0.00;0.00;;;;;;;12.26;100.00;99568.13;4983369;28;20232;-56
2022/10/07 06:20:34;;;;;;;0.00;0.00;;;;;;;12.36;100.00;99571.56;4982628;28;20269;-58
2022/10/07 06:23:00;;;;;;;0.00;0.00;;;;;;;12.46;100.00;99574.19;5002165;28;20260;-58
2022/10/07 06:25:28;;;;;;;0.00;0.00;;;;;;;12.52;100.00;99568.41;4975095;28;20237;-58
2022/10/07 06:27:56;;;;;;;0.00;0.00;;;;;;;12.57;100.00;99573.19;4999821;28;20225;-58
2022/10/07 06:30:24;;;;;;;0.00;0.00;;;;;;;12.59;100.00;99566.03;4981811;28;20243;-58
2022/10/07 06:32:51;;;;;;;0.00;0.00;;;;;;;12.62;100.00;99575.41;4981089;28;20271;-59
2022/10/07 06:35:18;;;;;;;0.00;0.00;;;;;;;12.61;100.00;99581.63;4980402;28;20241;-58
2022/10/07 06:37:46;;;;;;;0.00;0.00;;;;;;;12.57;100.00;99578.44;5000697;28;20225;-58
2022/10/07 06:40:12;;;;;;;0.00;0.00;;;;;;;12.53;100.00;99571.81;4996975;28;20224;-57
2022/10/07 06:42:39;;;;;;;0.00;0.00;;;;;;;12.54;100.00;99576.94;4980192;28;20233;-58
2022/10/07 06:45:22;;;;;;;0.00;0.00;;;;;;;12.46;100.00;99579.44;4979437;28;20588;-57
2022/10/07 06:47:51;;;;;;;0.00;0.00;;;;;;;12.51;100.00;99590.31;4980514;28;20644;-58
2022/10/07 06:50:18;;;;;;;0.00;0.00;;;;;;;12.54;100.00;99581.34;4981432;28;20236;-58
2022/10/07 06:52:46;;;;;;;0.00;0.00;;;;;;;12.67;100.00;99588.91;4979351;28;20233;-58
2022/10/07 06:55:13;;;;;;;0.00;0.00;;;;;;;12.67;100.00;99594.16;4978142;28;20240;-58
2022/10/07 06:57:42;;;;;;;0.00;0.00;;;;;;;12.67;100.00;99591.53;4979926;28;20235;-58
2022/10/07 07:00:10;;;;;;;0.00;0.00;;;;;;;12.67;100.00;99589.72;4972216;28;20226;-57
2022/10/07 07:02:37;;;;;;;0.00;0.00;;;;;;;12.59;100.00;99586.97;4977838;28;20292;-59
2022/10/07 07:05:07;;;;;;;0.00;0.00;;;;;;;12.63;100.00;99583.13;4977483;28;20865;-57
2022/10/07 07:07:34;;;;;;;0.00;0.00;;;;;;;12.72;100.00;99588.47;4979269;28;20240;-59
2022/10/07 07:10:03;;;;;;;0.00;0.00;;;;;;;12.76;99.50;99584.59;4981120;28;20240;-57
2022/10/07 07:12:32;;;;;;;0.00;0.00;;;;;;;12.78;99.30;99585.28;4976461;28;20306;-58
2022/10/07 07:15:00;;;;;;;0.00;0.00;;;;;;;12.80;98.14;99593.84;4985044;28;20244;-57
2022/10/07 07:17:27;;;;;;;0.00;0.00;;;;;;;12.77;98.50;99581.03;4972373;28;21443;-56
2022/10/07 07:19:55;;;;;;;0.00;0.00;;;;;;;12.84;99.27;99592.59;4980343;28;20257;-56
2022/10/07 07:22:22;;;;;;;0.00;0.00;;;;;;;12.91;99.44;99591.06;4975784;28;20671;-57
2022/10/07 07:24:50;;;;;;;0.00;0.00;;;;;;;12.94;97.02;99589.94;4977778;28;20225;-58
2022/10/07 07:27:18;;;;;;;0.00;0.00;;;;;;;12.81;96.67;99587.63;4977291;28;20230;-57
2022/10/07 07:29:45;;;;;;;0.00;0.00;;;;;;;12.89;96.71;99593.00;4975266;28;20224;-59
2022/10/07 07:32:12;;;;;;;0.00;0.00;;;;;;;12.90;95.89;99588.56;4976546;28;20720;-57
2022/10/07 07:34:42;;;;;;;0.00;0.00;;;;;;;12.96;96.43;99599.31;4978426;28;20291;-60
2022/10/07 07:37:13;;;;;;;0.00;0.00;;;;;;;13.03;96.01;99596.94;4992635;28;20870;-58
2022/10/07 07:39:44;;;;;;;0.00;0.00;;;;;;;13.07;96.02;99593.06;4980309;28;20241;-57
2022/10/07 07:42:14;;;;;;;0.00;0.00;;;;;;;13.23;95.22;99595.09;4979144;28;20686;-57
2022/10/07 07:44:44;;;;;;;0.00;0.00;;;;;;;13.28;94.66;99600.72;4979686;28;20233;-58
2022/10/07 07:47:15;;;;;;;0.00;0.00;;;;;;;13.40;94.76;99592.66;4982001;28;20238;-59
2022/10/07 07:49:43;;;;;;;0.00;0.00;;;;;;;13.50;92.68;99592.66;4979812;28;20253;-58
2022/10/07 07:52:14;;;;;;;0.00;0.00;;;;;;;13.62;92.98;99598.53;4975899;28;20229;-59
2022/10/07 07:54:46;;;;;;;0.00;0.00;;;;;;;13.73;92.00;99591.28;4977321;28;20230;-58
2022/10/07 07:57:13;;;;;;;0.00;0.00;;;;;;;13.82;91.63;99589.56;4976576;28;20632;-58
2022/10/07 07:59:41;;;;;;;0.00;0.00;;;;;;;13.95;91.29;99583.94;4982434;28;20239;-59
2022/10/07 08:02:11;;;;;;;0.00;0.00;;;;;;;14.12;91.30;99584.94;4975838;28;20241;-58
2022/10/07 08:04:39;;;;;;;0.00;0.00;;;;;;;14.13;90.22;99591.00;4977255;28;20589;-57
2022/10/07 08:07:06;;;;;;;0.00;0.00;;;;;;;14.28;88.76;99591.31;4980230;28;20247;-59
2022/10/07 08:09:34;;;;;;;0.00;0.00;;;;;;;14.51;87.39;99582.94;4994512;28;20245;-59
2022/10/07 08:12:01;;;;;;;0.00;0.00;;;;;;;14.48;87.91;99589.34;4989704;28;20245;-57
2022/10/07 08:14:27;;;;;;;0.00;0.00;;;;;;;14.53;87.42;99591.50;4977147;28;20240;-56
2022/10/07 08:16:57;;;;;;;0.00;0.00;;;;;;;14.57;86.95;99590.22;4997514;28;20222;-57
2022/10/07 08:19:28;;;;;;;0.00;0.00;;;;;;;14.57;87.03;99592.84;4976389;28;20232;-58
2022/10/07 08:21:56;;;;;;;0.00;0.00;;;;;;;14.57;87.51;99585.78;4981338;28;20243;-58
2022/10/07 08:24:26;;;;;;;0.00;0.00;;;;;;;14.64;86.50;99591.25;4991545;28;20730;-57
2022/10/07 08:26:53;;;;;;;0.00;0.00;;;;;;;14.75;86.43;99588.41;4978628;28;20313;-57
2022/10/07 08:29:20;;;;;;;0.00;0.00;;;;;;;14.75;86.99;99591.03;4994608;28;20257;-61
2022/10/07 08:31:47;;;;;;;0.00;0.00;;;;;;;14.93;85.26;99584.06;4974643;28;20238;-58
2022/10/07 08:34:14;;;;;;;0.00;0.00;;;;;;;14.90;86.14;99587.84;4992436;28;22025;-57
2022/10/07 08:36:46;;;;;;;0.00;0.00;;;;;;;14.96;83.78;99589.84;4994223;28;20230;-57
2022/10/07 08:39:12;;;;;;;0.00;0.00;;;;;;;15.01;85.17;99578.84;4991925;28;20791;-57
2022/10/07 08:41:45;;;;;;;0.00;0.00;;;;;;;15.04;84.74;99587.28;4997105;28;20238;-57
2022/10/07 08:44:18;;;;;;;0.00;0.00;;;;;;;14.85;84.56;99574.34;4993186;28;20235;-59
2022/10/07 08:46:53;;;;;;;0.00;0.00;;;;;;;15.07;84.40;99572.97;4996210;28;20228;-58
2022/10/07 08:49:27;;;;;;;0.00;0.00;;;;;;;15.31;83.93;99568.81;4993015;28;20257;-58
2022/10/07 08:52:02;;;;;;;0.00;0.00;;;;;;;15.34;81.87;99564.06;4992686;28;20242;-58
2022/10/07 08:54:30;;;;;;;0.00;0.00;;;;;;;15.25;84.20;99565.03;4993906;28;20239;-56
2022/10/07 08:57:04;;;;;;;0.00;0.00;;;;;;;15.31;82.18;99563.56;4994207;28;20270;-57
2022/10/07 08:59:33;;;;;;;0.00;0.00;;;;;;;15.33;82.91;99570.31;4993780;28;20238;-58
2022/10/07 09:02:14;;;;;;;0.00;0.00;;;;;;;15.33;82.91;99558.94;4996794;28;20238;-57
2022/10/07 09:04:53;;;;;;;0.00;0.00;;;;;;;15.49;81.38;99556.38;4993752;28;20569;-58
2022/10/07 09:07:31;;;;;;;0.00;0.00;;;;;;;15.49;81.72;99558.19;4992556;28;20247;-58
2022/10/07 09:10:04;;;;;;;0.00;0.00;;;;;;;15.55;81.63;99554.09;4996497;28;20236;-59
2022/10/07 09:12:36;;;;;;;0.00;0.00;;;;;;;15.38;81.57;99551.41;4975540;28;20245;-59
2022/10/07 09:15:06;;;;;;;0.00;0.00;;;;;;;15.49;81.78;99540.59;4995358;28;20299;-59
2022/10/07 09:17:37;;;;;;;0.00;0.00;;;;;;;15.42;81.75;99542.22;4991705;28;20242;-59
2022/10/07 09:20:12;;;;;;;0.00;0.00;;;;;;;15.40;83.37;99541.56;4994717;28;20288;-59
2022/10/07 09:22:41;;;;;;;0.00;0.00;;;;;;;15.56;83.05;99534.69;4991295;28;20239;-59
2022/10/07 09:25:19;;;;;;;0.00;0.00;;;;;;;15.62;82.84;99537.50;4994528;28;20234;-58
2022/10/07 09:27:47;;;;;;;0.00;0.00;;;;;;;15.83;81.42;99536.22;4996537;28;20296;-59
2022/10/07 09:30:15;;;;;;;0.00;0.00;;;;;;;15.73;81.49;99531.13;4993597;28;20255;-57
2022/10/07 09:32:44;;;;;;;0.00;0.00;;;;;;;15.87;80.34;99532.31;4993796;28;20270;-58
2022/10/07 09:35:12;;;;;;;0.00;0.00;;;;;;;15.62;81.18;99526.97;4994097;28;20231;-58
2022/10/07 09:37:54;;;;;;;0.00;0.00;;;;;;;15.77;80.99;99527.19;4996887;28;20602;-59
2022/10/07 09:40:30;;;;;;;0.00;0.00;;;;;;;15.70;82.83;99528.81;4993404;28;20231;-56
2022/10/07 09:42:58;;;;;;;0.00;0.00;;;;;;;15.84;81.68;99518.63;4996422;28;20237;-57
2022/10/07 09:45:27;;;;;;;0.00;0.00;;;;;;;15.78;81.56;99517.44;4993835;28;20229;-57
2022/10/07 09:47:56;;;;;;;0.00;0.00;;;;;;;15.89;82.24;99519.00;4995355;28;20385;-56
2022/10/07 09:50:35;;;;;;;0.00;0.00;;;;;;;16.08;80.39;99515.22;4991116;28;20230;-58
2022/10/07 09:53:04;;;;;;;0.00;0.00;;;;;;;16.08;80.63;99512.56;4995313;28;20259;-57
2022/10/07 09:55:36;;;;;;;0.00;0.00;;;;;;;15.93;81.88;99515.03;4992008;28;20357;-58
2022/10/07 09:58:05;;;;;;;0.00;0.00;;;;;;;16.12;80.69;99516.53;4994737;28;20236;-57
2022/10/07 10:00:40;;;;;;;0.00;0.00;;;;;;;16.12;79.38;99511.25;4990108;28;20725;-58
2022/10/07 10:03:10;;;;;;;0.00;0.00;;;;;;;16.18;79.94;99512.41;4991045;28;20234;-58
2022/10/07 10:05:38;;;;;;;0.00;0.00;;;;;;;16.33;79.28;99504.66;4989551;28;20222;-58
2022/10/07 10:08:19;;;;;;;0.00;0.00;;;;;;;16.20;79.87;99508.63;4981320;28;21244;-59
2022/10/07 10:10:51;;;;;;;0.00;0.00;;;;;;;16.36;78.82;99501.69;4994394;28;20250;-59
2022/10/07 10:13:27;;;;;;;0.00;0.00;;;;;;;16.34;79.16;99501.03;4970070;28;20227;-57
2022/10/07 10:15:53;;;;;;;0.00;0.00;;;;;;;16.21;80.26;99496.25;4993665;28;20353;-59
2022/10/07 10:18:33;;;;;;;0.00;0.00;;;;;;;16.44;80.68;99492.94;4992724;28;20242;-57
2022/10/07 10:21:28;;;;;;;0.00;0.00;;;;;;;16.68;79.50;99490.25;4995504;28;20263;-58
2022/10/07 10:23:58;;;;;;;0.00;0.00;;;;;;;16.73;79.12;99481.81;4998051;28;20305;-57
2022/10/07 10:26:46;;;;;;;0.00;0.00;;;;;;;16.80;78.48;99485.44;4978782;28;20727;-58
2022/10/07 10:29:25;;;;;;;0.00;0.00;;;;;;;16.76;77.83;99472.78;4975488;28;20223;-56
2022/10/07 10:32:14;;;;;;;0.00;0.00;;;;;;;16.79;77.96;99472.44;4996519;28;20295;-56
2022/10/07 10:34:49;;;;;;;0.00;0.00;;;;;;;16.90;78.08;99461.50;4993085;28;20230;-57
2022/10/07 10:37:19;;;;;;;0.00;0.00;;;;;;;17.08;77.37;99465.72;4993926;28;20692;-58
2022/10/07 10:40:17;;;;;;;0.00;0.00;;;;;;;17.21;75.83;99467.81;4998538;28;20298;-58
2022/10/07 10:42:51;;;;;;;0.00;0.00;;;;;;;17.13;76.49;99462.59;4976344;28;20309;-58
2022/10/07 10:45:32;;;;;;;0.00;0.00;;;;;;;17.01;76.44;99457.69;4995182;28;20279;-57
2022/10/07 10:48:19;;;;;;;0.00;0.00;;;;;;;16.92;76.51;99454.25;4998178;28;20712;-56
2022/10/07 10:50:53;;;;;;;0.00;0.00;;;;;;;17.00;76.33;99447.28;4993636;28;20286;-60
2022/10/07 10:53:33;;;;;;;0.00;0.00;;;;;;;17.08;76.54;99449.91;4993614;28;20238;-59
2022/10/07 10:56:14;;;;;;;0.00;0.00;;;;;;;17.19;75.97;99446.88;4996894;28;20797;-59
2022/10/07 10:58:56;;;;;;;0.00;0.00;;;;;;;17.40;74.50;99446.28;4993433;28;20253;-58
2022/10/07 11:01:32;;;;;;;0.00;0.00;;;;;;;17.13;76.21;99439.66;4991521;28;20250;-58
2022/10/07 11:04:20;;;;;;;0.00;0.00;;;;;;;17.16;75.63;99444.56;4997409;28;20619;-58
2022/10/07 11:06:52;;;;;;;0.00;0.00;;;;;;;17.26;74.99;99437.25;4993484;28;20240;-59
2022/10/07 11:09:27;;;;;;;0.00;0.00;;;;;;;17.35;74.74;99440.69;4995862;28;20608;-59
2022/10/07 11:11:56;;;;;;;0.00;0.00;;;;;;;17.45;76.05;99435.16;4993550;28;20242;-59
2022/10/07 11:14:25;;;;;;;0.00;0.00;;;;;;;17.31;73.87;99428.00;4995819;28;20692;-57
2022/10/07 11:16:56;;;;;;;0.00;0.00;;;;;;;17.45;74.92;99429.88;4998606;28;20235;-55
2022/10/07 11:19:28;;;;;;;0.00;0.00;;;;;;;17.45;74.68;99421.97;4994172;28;20620;-59
2022/10/07 11:21:58;;;;;;;0.00;0.00;;;;;;;17.67;74.32;99414.22;4993701;28;20267;-57
2022/10/07 11:24:29;;;;;;;0.00;0.00;;;;;;;17.60;72.81;99414.09;4980218;28;20927;-58
2022/10/07 11:27:04;;;;;;;0.00;0.00;;;;;;;17.54;74.23;99398.97;4996874;28;20347;-57
2022/10/07 11:29:36;;;;;;;0.00;0.00;;;;;;;17.68;73.69;99392.09;4993046;28;20235;-56
2022/10/07 11:32:07;;;;;;;0.00;0.00;;;;;;;17.82;73.69;99393.13;4994935;28;20228;-58
2022/10/07 11:34:41;;;;;;;0.00;0.00;;;;;;;17.77;72.32;99396.31;4993546;28;20238;-59
2022/10/07 11:37:15;;;;;;;0.00;0.00;;;;;;;17.92;72.48;99391.06;4994200;28;20707;-58
2022/10/07 11:39:42;;;;;;;0.00;0.00;;;;;;;18.15;72.73;99388.38;4994457;28;20336;-58
2022/10/07 11:42:16;;;;;;;0.00;0.00;;;;;;;18.11;70.97;99394.22;4993731;28;20691;-59
2022/10/07 11:44:53;;;;;;;0.00;0.00;;;;;;;18.08;71.19;99390.09;4996642;28;20291;-57
2022/10/07 11:47:24;;;;;;;0.00;0.00;;;;;;;18.16;71.89;99381.28;4994866;28;20239;-59
2022/10/07 11:49:57;;;;;;;0.00;0.00;;;;;;;18.37;72.50;99374.44;4998698;28;20286;-58
2022/10/07 11:52:27;;;;;;;0.00;0.00;;;;;;;18.42;70.73;99380.81;4993459;28;20236;-57
2022/10/07 11:55:01;;;;;;;0.00;0.00;;;;;;;18.38;70.10;99382.19;4995480;28;20229;-59
2022/10/07 11:57:32;;;;;;;0.00;0.00;;;;;;;18.41;70.52;99376.53;4994710;28;20229;-58
2022/10/07 12:00:04;;;;;;;0.00;0.00;;;;;;;18.42;70.21;99372.88;4997241;28;20256;-58